Edward Hamilton

Chefscout - Burnley
22 Feb 2028
Dienstag
Verarbeitung

Persönlichkeit

Anpassungsfähigkeit (9) Ehrgeiz (19) Kontroverse (6) Loyalität (12) Druck (18) Professionalität (14) Fairness (11) Temperament (8)

Profil

Trainerstil Demokratisch
Lizenz Kontinentale A
Entschlossenheit 8
Menschenführung 12
Motivation 8
Disziplin 13
Arbeitszufriedenheit
100%
Ermüdung
0%
Rolle Chefscout
Gehalt 85.5K p/W
Vertrag 14.03.2029

Leistung

Verhalten Gut
Trainingseffektivität
55%
Spielerentwicklung
45%
Verletzungsprävention
35%
Taktische Umsetzung
65%

Letzte Ereignisse

Nahm an einer Scouting-Besprechung teil jetzt
Spieler begutachtet 7T her
Nahm an einer Scouting-Besprechung teil 7T her
Empfahl ein Transferziel 7T her
Nahm an einer Scouting-Besprechung teil 7T her
Spieler begutachtet 7T her
Spieler begutachtet 7T her
Spieler begutachtet 7T her

Aktuell beobachtet

173
Spieler Verein Status Fähigkeit Vertrauen Beobachtet Zuletzt beobachtet Letzte Stimme
Fillip Jenssen Riise Stabaek Aktiv 104 / 124 40% 2 19.02.2028 -
Gopolang Taunyane CR Belouizdad Aktiv 93 / 97 40% 2 19.02.2028 -
Christos Mouzakitis Hull City Aktiv 139 / 152 40% 4 16.02.2028 -
Guy Noël Zohouri RC Strasbourg Aktiv 119 / 125 40% 1 16.02.2028 -
Ronan Kpakio Cardiff City Aktiv 120 / 132 40% 4 15.02.2028 -
Emmanuel Dzigbah Cukaricki Aktiv 98 / 107 40% 1 15.02.2028 -
Esquerdinha Shrewsbury Town Aktiv 128 / 128 40% 8 14.02.2028 -
Ayden Heaven Luton Town Aktiv 138 / 143 40% 3 14.02.2028 -
Tobías Andrada Virtus Entella Aktiv 123 / 127 40% 1 14.02.2028 -
Rivaldo Grobler Free State Stars Aktiv 104 / 112 40% 3 13.02.2028 -
Vasilije Novičić IMT Aktiv 98 / 103 40% 1 13.02.2028 -
Honest Ahanor AS Roma Aktiv 137 / 149 40% 1 13.02.2028 -
Sascha Britschgi Padova Aktiv 121 / 133 40% 1 11.02.2028 -
Alexis Vossah FC Nantes Aktiv 118 / 126 40% 1 11.02.2028 -
Trey Nyoni Rotherham United Aktiv 139 / 147 40% 2 10.02.2028 -
Igor Felisberto Sport Recife Aktiv 113 / 108 40% 1 10.02.2028 -
Mikkel Hope Haugesund Aktiv 111 / 120 40% 1 10.02.2028 -
Martim Cunha Porto Aktiv 100 / 103 40% 1 09.02.2028 -
Josh King Chelsea Aktiv 139 / 157 40% 3 08.02.2028 -
Josh Nichols Tranmere Rovers Aktiv 120 / 116 40% 3 08.02.2028 -
Daniel Banjaqui Benfica Aktiv 124 / 128 40% 1 08.02.2028 -
Kelly Saravanan Salford City Bericht bereit 111 / 112 69% 1 24.01.2028 -
Ernie Weaver AFC Wimbledon Aktiv 111 / 115 40% 3 17.01.2028 -
Adam Aznou Everton Aktiv 123 / 137 40% 1 17.01.2028 -
Alex Lowry Wycombe Wanderers Verloren 114 / 113 69% 1 10.01.2028 -
Mao Hosoya Everton Verhandlung 134 / 135 90% 1 01.01.2028 -
Caleb Yirenkyi Coventry City Aktiv 145 / 146 40% 4 31.12.2027 -
Jorthy Mokio ADO Den Haag Aktiv 123 / 144 40% 1 31.12.2027 -
Celías Ingenthron Vélez Aktiv 119 / 130 40% 4 07.12.2027 -
Eduardo Felicíssimo Sporting CP Aktiv 114 / 137 40% 1 07.12.2027 -
Joel McGregor Swindon Town Aktiv 101 / 108 40% 1 07.12.2027 -
Agustín Obregón River Plate Aktiv 113 / 116 40% 2 04.12.2027 -
Juan Morán Godoy Cruz Aktiv 100 / 103 40% 2 04.12.2027 -
Khalis Merah Toulouse FC Aktiv 122 / 136 40% 2 03.12.2027 -
Tygo Land PSV Aktiv 132 / 138 40% 1 28.11.2027 -
Giovanni Leoni Bradford City Aktiv 146 / 155 40% 1 27.11.2027 -
Tiago Parente Benfica Aktiv 114 / 120 40% 3 26.11.2027 -
Harrison Armstrong Everton Aktiv 133 / 142 40% 1 26.11.2027 -
Lazar Stefanovic Toronto FC Aktiv 90 / 91 40% 2 21.11.2027 -
Frankie Westfield Philadelphia Union Aktiv 99 / 114 40% 4 21.11.2027 -
Jonny Shore New York City Aktiv 99 / 108 40% 1 21.11.2027 -
Hervin Goyes Deportivo Pasto Aktiv 105 / 121 40% 2 17.11.2027 -
Alejandro Almaraz Nueva Chicago Aktiv 111 / 124 40% 3 15.11.2027 -
Archie Gray Derby County Aktiv 155 / 152 40% 1 14.11.2027 -
Felipe Obradovich Ferro Carril Oeste Aktiv 102 / 125 40% 1 13.11.2027 -
Dmitry Pestryakov Dinamo Moscow Aktiv 105 / 115 40% 1 13.11.2027 -
Matías Gómez Granada Aktiv 125 / 131 40% 2 12.11.2027 -
Veljko Milosavljević Aston Villa Aktiv 137 / 156 40% 2 12.11.2027 -
Jorrel Hato Chelsea Aktiv 146 / 148 40% 1 12.11.2027 -
Mauro Carrizo Atlético Tucumán Aktiv 109 / 109 40% 2 10.11.2027 -
Dylan Gorosito Villarreal Aktiv 120 / 125 40% 1 09.11.2027 -
Stuart Hawkins Seattle Sounders Aktiv 117 / 113 40% 1 09.11.2027 -
Samuel Martín Millonarios Aktiv 107 / 115 40% 1 08.11.2027 -
Kaick Minnesota United FC Aktiv 112 / 127 40% 1 07.11.2027 -
Joe Johnson Barnet Aktiv 99 / 101 40% 3 02.11.2027 -
Bahia Criciuma Aktiv 120 / 113 40% 2 01.11.2027 -
Malick Yalcouyé Brighton Aktiv 128 / 128 40% 1 14.10.2027 -
Pablo Aguiar Independiente Aktiv 98 / 112 40% 1 14.10.2027 -
Juma Bah Manchester City Aktiv 127 / 123 40% 1 13.10.2027 -
Luka Vušković Manchester United Aktiv 141 / 152 40% 1 11.10.2027 -
Myles Lewis-Skelly Birmingham Aktiv 145 / 151 40% 2 09.10.2027 -
Julián Bazán Philadelphia Union Aktiv 105 / 106 40% 1 07.10.2027 -
Dayann Methalie Aston Villa Aktiv 132 / 141 40% 1 07.10.2027 -
Dango Ouattara Brentford Aktiv 150 / 138 40% 4 30.05.2027 -
Luis Vázquez Birmingham Aktiv 128 / 126 40% 9 28.05.2027 -
Tom Cannon Sheffield United Aktiv 129 / 136 40% 2 28.05.2027 -
Evidence Makgopa Orlando Pirates Aktiv 103 / 100 40% 5 27.05.2027 -
Wilson Isidor Sunderland Aktiv 133 / 132 40% 3 27.05.2027 -
Joe Gelhardt Hull City Aktiv 134 / 123 40% 3 26.05.2027 -
Bradley Fink Wycombe Wanderers Aktiv 117 / 110 40% 1 26.05.2027 -
Aune Heggebø West Bromwich Albion Aktiv 125 / 129 40% 3 24.05.2027 -
Will Lankshear Middlesbrough Aktiv 125 / 117 40% 2 24.05.2027 -
Giacomo Raspadori Atalanta Aktiv 155 / 139 40% 4 22.05.2027 -
Mathias Jørgensen Blackburn Rovers Aktiv 118 / 119 40% 1 19.05.2027 -
Yousef Salech Cardiff City Aktiv 129 / 137 40% 5 18.05.2027 Beobachten
Mandla Mahlangu Ajax Cape Town Aktiv 116 / 119 40% 2 18.05.2027 -
Tommy Conway Middlesbrough Aktiv 129 / 121 40% 3 17.05.2027 -
Róbert Boženík Newcastle United Aktiv 135 / 120 40% 2 14.05.2027 -
Jayden Wareham Barnet Aktiv 106 / 110 40% 3 14.05.2027 -
Assane Diao Lazio Aktiv 140 / 156 40% 4 11.05.2027 -
Gonzalo Fulham Aktiv 153 / 151 40% 4 08.05.2027 -
Rhian Brewster Oxford United Aktiv 122 / 120 40% 1 08.05.2027 -
Nicolò Zaniolo Udinese Aktiv 150 / 143 40% 2 04.05.2027 -
Lee Bonis Chesterfield Aktiv 109 / 98 40% 2 03.05.2027 -
Jaze Kabia Grimsby Town Aktiv 90 / 91 40% 1 02.05.2027 -
Dom Ballard Leyton Orient Aktiv 126 / 113 40% 1 01.05.2027 -
Harry Leonard Peterborough United Aktiv 103 / 118 40% 1 30.04.2027 -
Georginio Rutter Brighton Aktiv 141 / 158 40% 9 29.04.2027 -
Nicolas Jackson Aston Villa Aktiv 142 / 138 40% 3 26.04.2027 -
Mees Rijks Bristol Rovers Aktiv 112 / 118 40% 1 26.04.2027 -
Christian Saydee Wigan Athletic Aktiv 116 / 125 40% 1 24.04.2027 -
Bongani Mothiba SuperSport United Aktiv 87 / 81 40% 2 23.04.2027 -
Etiosa Ighodaro Kaizer Chiefs Aktiv 114 / 123 40% 3 22.04.2027 -
Richard Koné Queens Park Rangers Aktiv 132 / 122 40% 2 19.04.2027 -
Ilyas Ansah Hull City Aktiv 135 / 137 40% 3 15.04.2027 -
Andrea Pinamonti Lazio Aktiv 132 / 133 40% 2 13.04.2027 -
Gabriel Martinelli Brighton Aktiv 167 / 158 40% 5 11.04.2027 -
Sam Bell Bristol City Aktiv 115 / 125 40% 1 10.04.2027 -
Zakaria Aboukhlal Torino Aktiv 138 / 131 40% 1 25.03.2027 -
Iliman N'Diaye Everton Aktiv 166 / 147 40% 7 20.03.2027 -
Tyrese Campbell Sheffield United Aktiv 137 / 131 40% 2 18.03.2027 -
Dávid Strelec Middlesbrough Aktiv 133 / 143 40% 1 17.03.2027 -
Thiago Brentford Aktiv 141 / 156 40% 3 16.03.2027 -
Daouda Sidibé Aduana Stars Aktiv 75 / 90 40% 1 12.03.2027 -
Robert Mizo Ashanti Gold Aktiv 95 / 97 40% 1 05.03.2027 -
Justin Kluivert Bournemouth Aktiv 155 / 161 40% 1 13.01.2027 -
Adrien Truffert Bournemouth Aktiv 159 / 160 40% 1 07.01.2027 -
Enzo Le Fée Sunderland Aktiv 141 / 131 40% 1 02.01.2027 -
Maxim Glushenkov Zenit Aktiv 146 / 139 40% 1 02.01.2027 -
Christos Zafeiris Tigres Aktiv 138 / 141 91% 1 01.01.2027 Befürworten
Marvin Keller Bayer Leverkusen Verhandlung 136 / 137 67% 1 01.01.2027 -
Milan van Ewijk Mansfield Town Aktiv 125 / 123 40% 1 31.12.2026 -
Kevin Fulham Aktiv 141 / 142 40% 1 29.12.2026 -
Tammy Abraham Aston Villa Aktiv 138 / 144 40% 2 25.12.2026 -
Mohammed Kudus Tottenham Aktiv 169 / 147 40% 1 24.12.2026 -
Wessam Abou Ali Columbus Crew Aktiv 134 / 138 40% 2 22.12.2026 -
Elijah Adebayo Luton Town Aktiv 116 / 121 40% 1 22.12.2026 -
Breel Embolo Atlanta United FC Aktiv 143 / 131 40% 5 21.12.2026 -
Cameron Archer Southampton Aktiv 119 / 126 40% 2 20.12.2026 -
Jarrad Branthwaite Everton Aktiv 154 / 156 40% 1 19.12.2026 -
Patson Daka Leicester City Aktiv 119 / 132 40% 1 17.12.2026 -
Carlos Vicente Birmingham Aktiv 144 / 134 40% 1 17.12.2026 -
Matt O'Riley Brighton Aktiv 155 / 144 40% 2 11.12.2026 -
Jack Rudoni Coventry City Aktiv 143 / 132 40% 1 11.12.2026 -
Ryan Sessegnon Fulham Aktiv 149 / 137 40% 2 09.12.2026 -
Mateo Retegui Tottenham Aktiv 151 / 151 40% 2 07.12.2026 -
Yusuke Matsuo Esteghlal Aktiv 112 / 143 40% 1 07.12.2026 -
Sandro Tonali Tottenham Aktiv 176 / 167 40% 4 06.12.2026 -
Taty Castellanos West Ham United Aktiv 146 / 147 40% 1 02.12.2026 -
Callum O'Hare Sheffield United Aktiv 135 / 118 40% 1 28.11.2026 -
Xavi Simons Tottenham Aktiv 156 / 146 40% 1 28.11.2026 -
Alonso Martínez New York City Aktiv 127 / 107 40% 1 25.11.2026 -
Aaron Hickey Brentford Aktiv 151 / 147 40% 1 24.11.2026 -
Leonardo Campana New England Revolution Aktiv 124 / 131 40% 1 23.11.2026 -
Jacob Ramsey Newcastle United Aktiv 141 / 138 40% 1 20.11.2026 -
Petar Stanić Ludogorets Aktiv 121 / 142 40% 1 18.11.2026 -
Dejan Joveljić Seattle Sounders Aktiv 143 / 135 40% 3 17.11.2026 -
Bénie Traoré New York City Aktiv 127 / 114 40% 2 16.11.2026 -
Dejan Kulusevski Tottenham Aktiv 174 / 156 40% 1 15.11.2026 -
Nathan Collins Brentford Aktiv 156 / 142 40% 1 15.11.2026 -
Yankuba Minteh Brighton Aktiv 153 / 150 40% 1 13.11.2026 -
Jean-Philippe Mateta Crystal Palace Aktiv 150 / 141 40% 2 11.11.2026 -
Petar Musa Adana Demirspor Aktiv 148 / 153 40% 2 10.11.2026 -
Noni Madueke Arsenal Aktiv 159 / 150 40% 1 08.11.2026 -
Micky van de Ven Tottenham Aktiv 168 / 167 40% 2 07.11.2026 -
Jan Paul van Hecke Tottenham Aktiv 153 / 146 40% 1 07.11.2026 -
Tyler Adams Bournemouth Aktiv 141 / 139 40% 1 03.11.2026 -
Jarrod Bowen West Ham United Aktiv 150 / 154 40% 1 01.11.2026 -
Duncan McGuire Houston Dynamo Aktiv 123 / 133 40% 2 31.10.2026 -
Romelu Castagne KV Oostende Aktiv 138 / 133 40% 2 22.10.2026 -
Jesus Ferreira Seattle Sounders Aktiv 118 / 117 40% 1 21.10.2026 -
Josh Sargent Toronto FC Aktiv 130 / 118 40% 2 20.10.2026 -
Federico Chiesa Liverpool Aktiv 149 / 162 40% 1 17.10.2026 -
Kerem Aktürkoğlu Fenerbahce Aktiv 148 / 158 40% 1 15.10.2026 -
Sead Hakšabanović Malmo FF Aktiv 104 / 100 40% 1 14.10.2026 -
Dominic Solanke Tottenham Aktiv 137 / 135 40% 1 12.10.2026 -
Cody Gakpo Liverpool Aktiv 167 / 152 40% 1 10.10.2026 -
Cheikh Sabaly Vancouver Whitecaps Aktiv 139 / 131 40% 2 07.10.2026 -
Barış Alper Yılmaz Galatasaray Aktiv 135 / 158 40% 1 07.10.2026 -
Milan Iloski Philadelphia Union Aktiv 115 / 124 40% 1 06.10.2026 -
Sam Surridge Nashville SC Aktiv 143 / 121 40% 1 05.10.2026 -
Morgan Guilavogui Real Salt Lake Aktiv 126 / 128 40% 2 01.10.2026 -
Victor Olatunji Real Salt Lake Aktiv 105 / 101 40% 2 01.10.2026 -
Rafael Navarro St. Louis CITY SC Aktiv 123 / 132 40% 3 30.09.2026 -
Indiana Vassilev Philadelphia Union Aktiv 111 / 105 40% 3 25.09.2026 -
Tai Baribo DC United Aktiv 114 / 141 40% 1 22.09.2026 -
Martín Ojeda Orlando City Aktiv 144 / 118 40% 1 21.09.2026 -
Prince Owusu CF Montreal Aktiv 104 / 127 40% 1 21.09.2026 -
Themba Ngcobo SuperSport United Aktiv 104 / 121 40% 1 19.09.2026 -
Kévin Denkey FC Cincinnati Aktiv 131 / 116 40% 1 15.09.2026 -
Jeong Sang-Bin St. Louis CITY SC Aktiv 108 / 121 40% 1 12.09.2026 -
Mauro Arambarri River Plate Aktiv 156 / 158 40% 1 20.08.2026 -
Hector Ramirez Newcastle United Aktiv 150 / 165 40% 1 20.08.2026 -